sensor_id;sensor_type;location;lat;lon;timestamp;P1;durP1;ratioP1;P2;durP2;ratioP2
58294;SDS011;45705;55.592;37.460;2023-04-08T00:01:54;9.50;;;3.85;;
58294;SDS011;45705;55.592;37.460;2023-04-08T00:04:19;11.43;;;4.47;;
58294;SDS011;45705;55.592;37.460;2023-04-08T00:06:45;7.55;;;3.55;;
58294;SDS011;45705;55.592;37.460;2023-04-08T00:09:11;9.30;;;4.03;;
58294;SDS011;45705;55.592;37.460;2023-04-08T00:11:36;10.93;;;4.18;;
58294;SDS011;45705;55.592;37.460;2023-04-08T00:14:03;9.82;;;3.92;;
58294;SDS011;45705;55.592;37.460;2023-04-08T00:16:29;11.45;;;4.03;;
58294;SDS011;45705;55.592;37.460;2023-04-08T00:18:55;9.95;;;3.80;;
58294;SDS011;45705;55.592;37.460;2023-04-08T00:21:21;10.13;;;4.22;;
58294;SDS011;45705;55.592;37.460;2023-04-08T00:23:47;12.73;;;4.45;;
58294;SDS011;45705;55.592;37.460;2023-04-08T00:26:14;8.43;;;4.20;;
58294;SDS011;45705;55.592;37.460;2023-04-08T00:28:41;12.55;;;3.90;;
58294;SDS011;45705;55.592;37.460;2023-04-08T00:31:07;5.32;;;3.20;;
58294;SDS011;45705;55.592;37.460;2023-04-08T00:33:33;6.95;;;3.50;;
58294;SDS011;45705;55.592;37.460;2023-04-08T00:35:59;8.50;;;4.03;;
58294;SDS011;45705;55.592;37.460;2023-04-08T00:38:25;10.20;;;4.00;;
58294;SDS011;45705;55.592;37.460;2023-04-08T00:40:50;9.70;;;4.40;;
58294;SDS011;45705;55.592;37.460;2023-04-08T00:43:16;9.00;;;3.70;;
58294;SDS011;45705;55.592;37.460;2023-04-08T00:45:45;6.72;;;4.00;;
58294;SDS011;45705;55.592;37.460;2023-04-08T00:48:11;12.45;;;4.45;;
58294;SDS011;45705;55.592;37.460;2023-04-08T00:50:38;14.75;;;4.65;;
58294;SDS011;45705;55.592;37.460;2023-04-08T00:53:04;8.70;;;3.72;;
58294;SDS011;45705;55.592;37.460;2023-04-08T00:55:29;9.02;;;4.13;;
58294;SDS011;45705;55.592;37.460;2023-04-08T00:57:55;8.45;;;3.55;;
58294;SDS011;45705;55.592;37.460;2023-04-08T01:00:22;8.07;;;4.00;;
58294;SDS011;45705;55.592;37.460;2023-04-08T01:02:54;7.47;;;4.30;;
58294;SDS011;45705;55.592;37.460;2023-04-08T01:08:25;9.15;;;4.03;;
58294;SDS011;45705;55.592;37.460;2023-04-08T01:10:55;7.63;;;4.10;;
58294;SDS011;45705;55.592;37.460;2023-04-08T01:13:25;8.40;;;3.92;;
58294;SDS011;45705;55.592;37.460;2023-04-08T01:15:54;12.23;;;4.35;;
58294;SDS011;45705;55.592;37.460;2023-04-08T01:18:20;10.50;;;3.85;;
58294;SDS011;45705;55.592;37.460;2023-04-08T01:20:47;9.57;;;4.00;;
58294;SDS011;45705;55.592;37.460;2023-04-08T01:23:18;11.27;;;4.38;;
58294;SDS011;45705;55.592;37.460;2023-04-08T01:26:01;10.63;;;4.40;;
58294;SDS011;45705;55.592;37.460;2023-04-08T01:28:28;12.98;;;4.45;;
58294;SDS011;45705;55.592;37.460;2023-04-08T01:30:58;7.63;;;4.07;;
58294;SDS011;45705;55.592;37.460;2023-04-08T01:33:26;14.18;;;4.13;;
58294;SDS011;45705;55.592;37.460;2023-04-08T01:35:54;8.90;;;3.90;;
58294;SDS011;45705;55.592;37.460;2023-04-08T01:38:22;14.25;;;4.30;;
58294;SDS011;45705;55.592;37.460;2023-04-08T01:40:50;10.20;;;3.83;;
58294;SDS011;45705;55.592;37.460;2023-04-08T01:43:17;12.40;;;4.22;;
58294;SDS011;45705;55.592;37.460;2023-04-08T01:45:44;8.90;;;4.30;;
58294;SDS011;45705;55.592;37.460;2023-04-08T01:48:11;8.80;;;4.78;;
58294;SDS011;45705;55.592;37.460;2023-04-08T01:50:39;9.60;;;4.18;;
58294;SDS011;45705;55.592;37.460;2023-04-08T01:53:07;14.63;;;4.38;;
58294;SDS011;45705;55.592;37.460;2023-04-08T01:55:34;11.55;;;4.63;;
58294;SDS011;45705;55.592;37.460;2023-04-08T01:58:01;7.38;;;4.15;;
58294;SDS011;45705;55.592;37.460;2023-04-08T02:02:56;9.60;;;4.32;;
58294;SDS011;45705;55.592;37.460;2023-04-08T02:05:23;8.20;;;4.45;;
58294;SDS011;45705;55.592;37.460;2023-04-08T02:07:49;11.52;;;4.80;;
58294;SDS011;45705;55.592;37.460;2023-04-08T02:10:15;8.38;;;4.63;;
58294;SDS011;45705;55.592;37.460;2023-04-08T02:12:41;7.72;;;4.60;;
58294;SDS011;45705;55.592;37.460;2023-04-08T02:15:09;12.55;;;4.90;;
58294;SDS011;45705;55.592;37.460;2023-04-08T02:22:47;12.55;;;4.05;;
58294;SDS011;45705;55.592;37.460;2023-04-08T02:25:14;10.10;;;4.28;;
58294;SDS011;45705;55.592;37.460;2023-04-08T02:27:41;9.77;;;5.38;;
58294;SDS011;45705;55.592;37.460;2023-04-08T02:30:09;14.77;;;5.00;;
58294;SDS011;45705;55.592;37.460;2023-04-08T02:32:36;12.82;;;5.13;;
58294;SDS011;45705;55.592;37.460;2023-04-08T02:35:03;10.02;;;5.00;;
58294;SDS011;45705;55.592;37.460;2023-04-08T02:37:30;14.93;;;5.10;;
58294;SDS011;45705;55.592;37.460;2023-04-08T02:39:58;9.80;;;5.20;;
58294;SDS011;45705;55.592;37.460;2023-04-08T02:42:24;13.55;;;5.28;;
58294;SDS011;45705;55.592;37.460;2023-04-08T02:44:51;10.27;;;4.68;;
58294;SDS011;45705;55.592;37.460;2023-04-08T02:47:17;10.32;;;5.05;;
58294;SDS011;45705;55.592;37.460;2023-04-08T02:49:43;11.75;;;5.30;;
58294;SDS011;45705;55.592;37.460;2023-04-08T02:52:09;11.13;;;5.53;;
58294;SDS011;45705;55.592;37.460;2023-04-08T02:54:34;12.48;;;5.35;;
58294;SDS011;45705;55.592;37.460;2023-04-08T02:57:00;9.95;;;5.32;;
58294;SDS011;45705;55.592;37.460;2023-04-08T02:59:26;11.50;;;5.68;;
58294;SDS011;45705;55.592;37.460;2023-04-08T03:01:51;11.23;;;5.05;;
58294;SDS011;45705;55.592;37.460;2023-04-08T03:04:17;13.27;;;5.38;;
58294;SDS011;45705;55.592;37.460;2023-04-08T03:06:43;12.98;;;5.63;;
58294;SDS011;45705;55.592;37.460;2023-04-08T03:09:09;14.13;;;5.47;;
58294;SDS011;45705;55.592;37.460;2023-04-08T03:11:34;9.85;;;5.28;;
58294;SDS011;45705;55.592;37.460;2023-04-08T03:14:00;14.45;;;5.30;;
58294;SDS011;45705;55.592;37.460;2023-04-08T03:16:26;14.43;;;5.95;;
58294;SDS011;45705;55.592;37.460;2023-04-08T03:18:51;9.52;;;4.85;;
58294;SDS011;45705;55.592;37.460;2023-04-08T03:21:17;13.50;;;5.35;;
58294;SDS011;45705;55.592;37.460;2023-04-08T03:23:43;14.48;;;5.95;;
58294;SDS011;45705;55.592;37.460;2023-04-08T03:26:09;9.57;;;5.63;;
58294;SDS011;45705;55.592;37.460;2023-04-08T03:28:35;15.50;;;5.85;;
58294;SDS011;45705;55.592;37.460;2023-04-08T03:31:02;13.45;;;5.60;;
58294;SDS011;45705;55.592;37.460;2023-04-08T03:33:28;10.60;;;5.90;;
58294;SDS011;45705;55.592;37.460;2023-04-08T03:35:54;9.32;;;5.72;;
58294;SDS011;45705;55.592;37.460;2023-04-08T03:38:20;13.07;;;5.97;;
58294;SDS011;45705;55.592;37.460;2023-04-08T03:40:45;15.32;;;6.10;;
58294;SDS011;45705;55.592;37.460;2023-04-08T03:43:12;12.63;;;6.50;;
58294;SDS011;45705;55.592;37.460;2023-04-08T03:45:37;14.90;;;6.13;;
58294;SDS011;45705;55.592;37.460;2023-04-08T03:48:03;16.30;;;5.53;;
58294;SDS011;45705;55.592;37.460;2023-04-08T03:50:29;16.15;;;6.15;;
58294;SDS011;45705;55.592;37.460;2023-04-08T03:52:55;16.38;;;5.97;;
58294;SDS011;45705;55.592;37.460;2023-04-08T03:55:20;15.70;;;6.20;;
58294;SDS011;45705;55.592;37.460;2023-04-08T03:57:46;12.98;;;6.15;;
58294;SDS011;45705;55.592;37.460;2023-04-08T04:00:12;19.20;;;6.18;;
58294;SDS011;45705;55.592;37.460;2023-04-08T04:02:38;12.30;;;6.40;;
58294;SDS011;45705;55.592;37.460;2023-04-08T04:05:04;14.52;;;6.75;;
58294;SDS011;45705;55.592;37.460;2023-04-08T04:07:30;17.27;;;6.22;;
58294;SDS011;45705;55.592;37.460;2023-04-08T04:09:56;17.00;;;6.32;;
58294;SDS011;45705;55.592;37.460;2023-04-08T04:12:24;11.48;;;6.13;;
58294;SDS011;45705;55.592;37.460;2023-04-08T04:14:50;14.07;;;6.72;;
58294;SDS011;45705;55.592;37.460;2023-04-08T04:17:16;13.18;;;7.00;;
58294;SDS011;45705;55.592;37.460;2023-04-08T04:19:42;12.60;;;6.00;;
58294;SDS011;45705;55.592;37.460;2023-04-08T04:22:08;12.73;;;6.60;;
58294;SDS011;45705;55.592;37.460;2023-04-08T04:24:34;12.27;;;6.10;;
58294;SDS011;45705;55.592;37.460;2023-04-08T04:26:59;14.35;;;6.65;;
58294;SDS011;45705;55.592;37.460;2023-04-08T04:29:25;17.83;;;6.95;;
58294;SDS011;45705;55.592;37.460;2023-04-08T04:31:51;15.05;;;6.97;;
58294;SDS011;45705;55.592;37.460;2023-04-08T04:34:16;14.25;;;6.82;;
58294;SDS011;45705;55.592;37.460;2023-04-08T04:36:42;13.43;;;6.32;;
58294;SDS011;45705;55.592;37.460;2023-04-08T04:39:08;12.70;;;5.93;;
58294;SDS011;45705;55.592;37.460;2023-04-08T04:41:34;12.90;;;6.80;;
58294;SDS011;45705;55.592;37.460;2023-04-08T04:44:03;18.88;;;6.55;;
58294;SDS011;45705;55.592;37.460;2023-04-08T04:46:29;15.07;;;6.38;;
58294;SDS011;45705;55.592;37.460;2023-04-08T04:48:55;24.55;;;6.38;;
58294;SDS011;45705;55.592;37.460;2023-04-08T04:51:24;11.93;;;6.13;;
58294;SDS011;45705;55.592;37.460;2023-04-08T04:53:51;13.30;;;6.18;;
58294;SDS011;45705;55.592;37.460;2023-04-08T04:56:20;13.20;;;6.30;;
58294;SDS011;45705;55.592;37.460;2023-04-08T04:58:46;20.35;;;6.05;;
58294;SDS011;45705;55.592;37.460;2023-04-08T05:01:11;15.00;;;6.05;;
58294;SDS011;45705;55.592;37.460;2023-04-08T05:03:37;15.75;;;6.10;;
58294;SDS011;45705;55.592;37.460;2023-04-08T05:06:03;22.10;;;6.30;;
58294;SDS011;45705;55.592;37.460;2023-04-08T05:08:29;18.55;;;6.05;;
58294;SDS011;45705;55.592;37.460;2023-04-08T05:10:54;16.65;;;6.78;;
58294;SDS011;45705;55.592;37.460;2023-04-08T05:13:20;16.35;;;5.93;;
58294;SDS011;45705;55.592;37.460;2023-04-08T05:15:46;11.73;;;5.63;;
58294;SDS011;45705;55.592;37.460;2023-04-08T05:18:12;12.88;;;6.10;;
58294;SDS011;45705;55.592;37.460;2023-04-08T05:20:38;16.17;;;5.80;;
58294;SDS011;45705;55.592;37.460;2023-04-08T05:23:04;13.55;;;5.78;;
58294;SDS011;45705;55.592;37.460;2023-04-08T05:25:30;15.45;;;6.05;;
58294;SDS011;45705;55.592;37.460;2023-04-08T05:27:56;10.85;;;5.70;;
58294;SDS011;45705;55.592;37.460;2023-04-08T05:30:21;13.77;;;6.20;;
58294;SDS011;45705;55.592;37.460;2023-04-08T05:32:47;10.15;;;5.80;;
58294;SDS011;45705;55.592;37.460;2023-04-08T05:35:13;14.77;;;6.57;;
58294;SDS011;45705;55.592;37.460;2023-04-08T05:37:39;14.68;;;6.13;;
58294;SDS011;45705;55.592;37.460;2023-04-08T05:40:05;12.63;;;6.25;;
58294;SDS011;45705;55.592;37.460;2023-04-08T05:42:31;13.85;;;5.60;;
58294;SDS011;45705;55.592;37.460;2023-04-08T05:44:57;17.25;;;6.22;;
58294;SDS011;45705;55.592;37.460;2023-04-08T05:47:22;17.50;;;5.93;;
58294;SDS011;45705;55.592;37.460;2023-04-08T05:49:48;16.17;;;6.15;;
58294;SDS011;45705;55.592;37.460;2023-04-08T05:52:14;9.75;;;6.75;;
58294;SDS011;45705;55.592;37.460;2023-04-08T05:54:43;12.02;;;5.82;;
58294;SDS011;45705;55.592;37.460;2023-04-08T05:57:09;23.63;;;6.57;;
58294;SDS011;45705;55.592;37.460;2023-04-08T05:59:34;15.23;;;5.97;;
58294;SDS011;45705;55.592;37.460;2023-04-08T06:02:00;12.02;;;6.10;;
58294;SDS011;45705;55.592;37.460;2023-04-08T06:04:26;16.15;;;5.63;;
58294;SDS011;45705;55.592;37.460;2023-04-08T06:06:51;10.40;;;5.20;;
58294;SDS011;45705;55.592;37.460;2023-04-08T06:09:18;12.52;;;5.25;;
58294;SDS011;45705;55.592;37.460;2023-04-08T06:11:43;16.05;;;5.90;;
58294;SDS011;45705;55.592;37.460;2023-04-08T06:15:40;16.92;;;5.57;;
58294;SDS011;45705;55.592;37.460;2023-04-08T06:18:06;15.40;;;6.25;;
58294;SDS011;45705;55.592;37.460;2023-04-08T06:20:32;15.13;;;6.13;;
58294;SDS011;45705;55.592;37.460;2023-04-08T06:22:58;10.98;;;5.63;;
58294;SDS011;45705;55.592;37.460;2023-04-08T06:25:23;10.55;;;5.70;;
58294;SDS011;45705;55.592;37.460;2023-04-08T06:27:49;7.50;;;5.53;;
58294;SDS011;45705;55.592;37.460;2023-04-08T06:30:15;10.05;;;5.53;;
58294;SDS011;45705;55.592;37.460;2023-04-08T06:32:41;11.95;;;5.25;;
58294;SDS011;45705;55.592;37.460;2023-04-08T06:35:07;11.88;;;5.50;;
58294;SDS011;45705;55.592;37.460;2023-04-08T06:37:33;18.15;;;5.13;;
58294;SDS011;45705;55.592;37.460;2023-04-08T06:40:03;10.25;;;5.40;;
58294;SDS011;45705;55.592;37.460;2023-04-08T06:42:30;17.00;;;6.35;;
58294;SDS011;45705;55.592;37.460;2023-04-08T06:45:14;11.10;;;5.97;;
58294;SDS011;45705;55.592;37.460;2023-04-08T06:47:40;8.10;;;4.97;;
58294;SDS011;45705;55.592;37.460;2023-04-08T06:50:06;12.18;;;5.70;;
58294;SDS011;45705;55.592;37.460;2023-04-08T06:52:31;10.90;;;5.78;;
58294;SDS011;45705;55.592;37.460;2023-04-08T06:54:58;13.32;;;5.65;;
58294;SDS011;45705;55.592;37.460;2023-04-08T06:57:23;19.25;;;5.72;;
58294;SDS011;45705;55.592;37.460;2023-04-08T06:59:51;13.98;;;6.88;;
58294;SDS011;45705;55.592;37.460;2023-04-08T07:02:17;11.75;;;5.80;;
58294;SDS011;45705;55.592;37.460;2023-04-08T07:04:43;8.98;;;5.60;;
58294;SDS011;45705;55.592;37.460;2023-04-08T07:07:09;13.32;;;5.68;;
58294;SDS011;45705;55.592;37.460;2023-04-08T07:09:35;12.82;;;5.75;;
58294;SDS011;45705;55.592;37.460;2023-04-08T07:12:01;10.10;;;5.88;;
58294;SDS011;45705;55.592;37.460;2023-04-08T07:14:28;13.17;;;6.77;;
58294;SDS011;45705;55.592;37.460;2023-04-08T07:16:54;11.40;;;6.47;;
58294;SDS011;45705;55.592;37.460;2023-04-08T07:19:21;10.63;;;6.47;;
58294;SDS011;45705;55.592;37.460;2023-04-08T07:21:48;13.80;;;7.18;;
58294;SDS011;45705;55.592;37.460;2023-04-08T07:24:14;11.30;;;5.50;;
58294;SDS011;45705;55.592;37.460;2023-04-08T07:26:40;11.85;;;5.60;;
58294;SDS011;45705;55.592;37.460;2023-04-08T07:29:06;20.80;;;6.18;;
58294;SDS011;45705;55.592;37.460;2023-04-08T07:31:32;19.85;;;6.20;;
58294;SDS011;45705;55.592;37.460;2023-04-08T07:33:57;10.98;;;4.68;;
58294;SDS011;45705;55.592;37.460;2023-04-08T07:36:23;13.98;;;6.47;;
58294;SDS011;45705;55.592;37.460;2023-04-08T07:38:49;11.57;;;5.82;;
58294;SDS011;45705;55.592;37.460;2023-04-08T07:41:16;13.00;;;5.88;;
58294;SDS011;45705;55.592;37.460;2023-04-08T07:43:41;12.10;;;5.95;;
58294;SDS011;45705;55.592;37.460;2023-04-08T07:46:07;12.85;;;5.60;;
58294;SDS011;45705;55.592;37.460;2023-04-08T07:48:33;31.88;;;7.55;;
58294;SDS011;45705;55.592;37.460;2023-04-08T07:51:03;14.50;;;5.15;;
58294;SDS011;45705;55.592;37.460;2023-04-08T07:53:30;5.68;;;2.97;;
58294;SDS011;45705;55.592;37.460;2023-04-08T07:55:57;7.60;;;4.18;;
58294;SDS011;45705;55.592;37.460;2023-04-08T07:58:23;14.43;;;5.90;;
58294;SDS011;45705;55.592;37.460;2023-04-08T08:00:49;11.68;;;4.93;;
58294;SDS011;45705;55.592;37.460;2023-04-08T08:03:15;21.02;;;5.45;;
58294;SDS011;45705;55.592;37.460;2023-04-08T08:05:41;8.05;;;5.13;;
58294;SDS011;45705;55.592;37.460;2023-04-08T08:08:07;8.77;;;4.15;;
58294;SDS011;45705;55.592;37.460;2023-04-08T08:10:36;13.25;;;5.70;;
58294;SDS011;45705;55.592;37.460;2023-04-08T08:13:03;10.23;;;5.40;;
58294;SDS011;45705;55.592;37.460;2023-04-08T08:15:30;14.82;;;5.45;;
58294;SDS011;45705;55.592;37.460;2023-04-08T08:17:55;11.07;;;5.13;;
58294;SDS011;45705;55.592;37.460;2023-04-08T08:20:21;12.98;;;7.18;;
58294;SDS011;45705;55.592;37.460;2023-04-08T08:22:47;14.45;;;6.05;;
58294;SDS011;45705;55.592;37.460;2023-04-08T08:25:12;14.75;;;6.38;;
58294;SDS011;45705;55.592;37.460;2023-04-08T08:27:38;9.75;;;3.90;;
58294;SDS011;45705;55.592;37.460;2023-04-08T08:30:06;10.18;;;5.20;;
58294;SDS011;45705;55.592;37.460;2023-04-08T08:32:33;14.52;;;5.85;;
58294;SDS011;45705;55.592;37.460;2023-04-08T08:34:59;12.90;;;6.65;;
58294;SDS011;45705;55.592;37.460;2023-04-08T08:37:25;12.57;;;6.05;;
58294;SDS011;45705;55.592;37.460;2023-04-08T08:39:52;14.85;;;8.55;;
58294;SDS011;45705;55.592;37.460;2023-04-08T08:42:21;15.23;;;8.02;;
58294;SDS011;45705;55.592;37.460;2023-04-08T08:44:48;14.70;;;8.70;;
58294;SDS011;45705;55.592;37.460;2023-04-08T08:47:14;19.70;;;9.48;;
58294;SDS011;45705;55.592;37.460;2023-04-08T08:49:41;19.40;;;5.57;;
58294;SDS011;45705;55.592;37.460;2023-04-08T08:52:07;10.65;;;6.00;;
58294;SDS011;45705;55.592;37.460;2023-04-08T08:54:34;13.35;;;9.50;;
58294;SDS011;45705;55.592;37.460;2023-04-08T08:57:00;19.33;;;10.32;;
58294;SDS011;45705;55.592;37.460;2023-04-08T08:59:25;17.63;;;7.53;;
58294;SDS011;45705;55.592;37.460;2023-04-08T09:01:51;19.65;;;10.82;;
58294;SDS011;45705;55.592;37.460;2023-04-08T09:04:20;18.10;;;9.43;;
58294;SDS011;45705;55.592;37.460;2023-04-08T09:06:47;11.63;;;6.55;;
58294;SDS011;45705;55.592;37.460;2023-04-08T09:09:15;15.32;;;7.80;;
58294;SDS011;45705;55.592;37.460;2023-04-08T09:11:42;12.48;;;6.75;;
58294;SDS011;45705;55.592;37.460;2023-04-08T09:14:43;19.10;;;6.93;;
58294;SDS011;45705;55.592;37.460;2023-04-08T09:17:02;12.00;;;6.47;;
58294;SDS011;45705;55.592;37.460;2023-04-08T09:19:27;14.23;;;5.90;;
58294;SDS011;45705;55.592;37.460;2023-04-08T09:22:09;9.40;;;5.20;;
58294;SDS011;45705;55.592;37.460;2023-04-08T09:24:36;9.57;;;5.72;;
58294;SDS011;45705;55.592;37.460;2023-04-08T09:27:03;11.25;;;6.63;;
58294;SDS011;45705;55.592;37.460;2023-04-08T09:29:29;12.52;;;6.00;;
58294;SDS011;45705;55.592;37.460;2023-04-08T09:31:58;16.35;;;6.45;;
58294;SDS011;45705;55.592;37.460;2023-04-08T09:34:25;11.02;;;5.60;;
58294;SDS011;45705;55.592;37.460;2023-04-08T09:36:52;14.35;;;6.03;;
58294;SDS011;45705;55.592;37.460;2023-04-08T09:39:19;14.73;;;6.22;;
58294;SDS011;45705;55.592;37.460;2023-04-08T09:41:46;12.18;;;6.60;;
58294;SDS011;45705;55.592;37.460;2023-04-08T09:44:14;15.13;;;6.13;;
58294;SDS011;45705;55.592;37.460;2023-04-08T09:49:14;17.70;;;6.40;;
58294;SDS011;45705;55.592;37.460;2023-04-08T09:55:04;15.52;;;6.00;;
58294;SDS011;45705;55.592;37.460;2023-04-08T10:00:12;19.42;;;5.70;;
58294;SDS011;45705;55.592;37.460;2023-04-08T10:03:26;13.50;;;5.88;;
58294;SDS011;45705;55.592;37.460;2023-04-08T10:05:29;8.65;;;5.32;;
58294;SDS011;45705;55.592;37.460;2023-04-08T10:07:56;12.60;;;6.00;;
58294;SDS011;45705;55.592;37.460;2023-04-08T10:10:22;12.18;;;5.88;;
58294;SDS011;45705;55.592;37.460;2023-04-08T10:12:48;16.25;;;5.82;;
58294;SDS011;45705;55.592;37.460;2023-04-08T10:15:25;13.80;;;5.38;;
58294;SDS011;45705;55.592;37.460;2023-04-08T10:22:59;12.65;;;6.15;;
58294;SDS011;45705;55.592;37.460;2023-04-08T10:25:32;9.77;;;6.07;;
58294;SDS011;45705;55.592;37.460;2023-04-08T10:28:01;12.82;;;6.40;;
58294;SDS011;45705;55.592;37.460;2023-04-08T10:30:47;11.60;;;6.43;;
58294;SDS011;45705;55.592;37.460;2023-04-08T10:33:15;12.48;;;5.65;;
58294;SDS011;45705;55.592;37.460;2023-04-08T10:35:42;7.70;;;4.80;;
58294;SDS011;45705;55.592;37.460;2023-04-08T10:38:12;11.75;;;4.45;;
58294;SDS011;45705;55.592;37.460;2023-04-08T10:40:39;7.88;;;4.40;;
58294;SDS011;45705;55.592;37.460;2023-04-08T10:43:08;10.93;;;4.70;;
58294;SDS011;45705;55.592;37.460;2023-04-08T10:45:35;8.52;;;5.28;;
58294;SDS011;45705;55.592;37.460;2023-04-08T10:50:57;16.52;;;5.18;;
58294;SDS011;45705;55.592;37.460;2023-04-08T10:53:25;7.95;;;5.28;;
58294;SDS011;45705;55.592;37.460;2023-04-08T10:56:11;12.88;;;5.95;;
58294;SDS011;45705;55.592;37.460;2023-04-08T10:58:50;7.00;;;5.47;;
58294;SDS011;45705;55.592;37.460;2023-04-08T11:01:17;9.05;;;5.45;;
58294;SDS011;45705;55.592;37.460;2023-04-08T11:03:43;15.48;;;5.53;;
58294;SDS011;45705;55.592;37.460;2023-04-08T11:06:09;8.55;;;5.05;;
58294;SDS011;45705;55.592;37.460;2023-04-08T11:08:35;14.50;;;6.57;;
58294;SDS011;45705;55.592;37.460;2023-04-08T11:11:02;10.88;;;6.72;;
58294;SDS011;45705;55.592;37.460;2023-04-08T11:13:33;12.68;;;6.65;;
58294;SDS011;45705;55.592;37.460;2023-04-08T11:16:01;14.98;;;6.55;;
58294;SDS011;45705;55.592;37.460;2023-04-08T11:18:33;17.17;;;6.63;;
58294;SDS011;45705;55.592;37.460;2023-04-08T11:21:00;15.95;;;6.82;;
58294;SDS011;45705;55.592;37.460;2023-04-08T11:23:28;11.85;;;6.97;;
58294;SDS011;45705;55.592;37.460;2023-04-08T11:25:54;13.18;;;7.30;;
58294;SDS011;45705;55.592;37.460;2023-04-08T11:28:20;13.73;;;7.63;;
58294;SDS011;45705;55.592;37.460;2023-04-08T11:30:46;12.07;;;7.47;;
58294;SDS011;45705;55.592;37.460;2023-04-08T11:33:13;12.77;;;7.03;;
58294;SDS011;45705;55.592;37.460;2023-04-08T11:35:42;12.63;;;7.38;;
58294;SDS011;45705;55.592;37.460;2023-04-08T11:38:09;12.27;;;7.40;;
58294;SDS011;45705;55.592;37.460;2023-04-08T11:40:35;22.70;;;7.60;;
58294;SDS011;45705;55.592;37.460;2023-04-08T11:43:11;13.20;;;7.28;;
58294;SDS011;45705;55.592;37.460;2023-04-08T11:45:39;9.70;;;7.18;;
58294;SDS011;45705;55.592;37.460;2023-04-08T11:48:09;11.30;;;7.18;;
58294;SDS011;45705;55.592;37.460;2023-04-08T11:50:36;19.33;;;7.65;;
58294;SDS011;45705;55.592;37.460;2023-04-08T11:53:02;12.82;;;7.45;;
58294;SDS011;45705;55.592;37.460;2023-04-08T11:57:56;15.32;;;8.23;;
58294;SDS011;45705;55.592;37.460;2023-04-08T12:00:26;16.30;;;8.27;;
58294;SDS011;45705;55.592;37.460;2023-04-08T12:02:52;14.40;;;7.80;;
58294;SDS011;45705;55.592;37.460;2023-04-08T12:05:19;13.85;;;7.60;;
58294;SDS011;45705;55.592;37.460;2023-04-08T12:07:45;11.43;;;7.15;;
58294;SDS011;45705;55.592;37.460;2023-04-08T12:10:12;13.82;;;8.13;;
58294;SDS011;45705;55.592;37.460;2023-04-08T12:12:38;15.10;;;7.90;;
58294;SDS011;45705;55.592;37.460;2023-04-08T12:15:05;13.88;;;8.10;;
58294;SDS011;45705;55.592;37.460;2023-04-08T12:17:32;11.00;;;7.07;;
58294;SDS011;45705;55.592;37.460;2023-04-08T12:19:59;13.75;;;7.72;;
58294;SDS011;45705;55.592;37.460;2023-04-08T12:22:25;13.85;;;6.85;;
58294;SDS011;45705;55.592;37.460;2023-04-08T12:24:51;10.85;;;6.30;;
58294;SDS011;45705;55.592;37.460;2023-04-08T12:27:16;13.32;;;6.57;;
58294;SDS011;45705;55.592;37.460;2023-04-08T12:29:42;12.48;;;6.30;;
58294;SDS011;45705;55.592;37.460;2023-04-08T12:32:08;12.20;;;6.70;;
58294;SDS011;45705;55.592;37.460;2023-04-08T12:34:33;9.43;;;5.65;;
58294;SDS011;45705;55.592;37.460;2023-04-08T12:36:59;12.00;;;6.40;;
58294;SDS011;45705;55.592;37.460;2023-04-08T12:39:25;14.57;;;6.60;;
58294;SDS011;45705;55.592;37.460;2023-04-08T12:41:51;11.65;;;6.03;;
58294;SDS011;45705;55.592;37.460;2023-04-08T12:44:16;13.98;;;6.07;;
58294;SDS011;45705;55.592;37.460;2023-04-08T12:46:43;10.32;;;6.28;;
58294;SDS011;45705;55.592;37.460;2023-04-08T12:49:09;11.23;;;5.60;;
58294;SDS011;45705;55.592;37.460;2023-04-08T12:51:34;14.20;;;6.45;;
58294;SDS011;45705;55.592;37.460;2023-04-08T12:54:01;12.85;;;6.32;;
58294;SDS011;45705;55.592;37.460;2023-04-08T12:56:28;13.27;;;6.28;;
58294;SDS011;45705;55.592;37.460;2023-04-08T12:58:56;10.98;;;5.57;;
58294;SDS011;45705;55.592;37.460;2023-04-08T13:01:22;8.40;;;5.50;;
58294;SDS011;45705;55.592;37.460;2023-04-08T13:03:47;18.88;;;5.68;;
58294;SDS011;45705;55.592;37.460;2023-04-08T13:06:13;9.65;;;4.97;;
58294;SDS011;45705;55.592;37.460;2023-04-08T13:08:39;13.73;;;5.20;;
58294;SDS011;45705;55.592;37.460;2023-04-08T13:11:06;10.15;;;4.88;;
58294;SDS011;45705;55.592;37.460;2023-04-08T13:13:32;10.10;;;5.10;;
58294;SDS011;45705;55.592;37.460;2023-04-08T13:15:58;8.52;;;5.90;;
58294;SDS011;45705;55.592;37.460;2023-04-08T13:18:24;12.13;;;4.82;;
58294;SDS011;45705;55.592;37.460;2023-04-08T13:20:49;8.68;;;5.32;;
58294;SDS011;45705;55.592;37.460;2023-04-08T13:23:15;6.72;;;5.30;;
58294;SDS011;45705;55.592;37.460;2023-04-08T13:25:42;18.15;;;6.75;;
58294;SDS011;45705;55.592;37.460;2023-04-08T13:28:09;10.27;;;5.05;;
58294;SDS011;45705;55.592;37.460;2023-04-08T13:30:35;9.77;;;5.50;;
58294;SDS011;45705;55.592;37.460;2023-04-08T13:33:01;7.32;;;4.80;;
58294;SDS011;45705;55.592;37.460;2023-04-08T13:35:27;9.85;;;5.47;;
58294;SDS011;45705;55.592;37.460;2023-04-08T13:37:53;10.25;;;4.47;;
58294;SDS011;45705;55.592;37.460;2023-04-08T13:40:19;8.52;;;4.68;;
58294;SDS011;45705;55.592;37.460;2023-04-08T13:42:45;11.40;;;5.60;;
58294;SDS011;45705;55.592;37.460;2023-04-08T13:45:12;10.32;;;4.95;;
58294;SDS011;45705;55.592;37.460;2023-04-08T13:47:38;10.18;;;5.20;;
58294;SDS011;45705;55.592;37.460;2023-04-08T13:50:06;7.00;;;4.93;;
58294;SDS011;45705;55.592;37.460;2023-04-08T13:52:32;10.68;;;4.90;;
58294;SDS011;45705;55.592;37.460;2023-04-08T13:54:58;7.35;;;5.15;;
58294;SDS011;45705;55.592;37.460;2023-04-08T13:57:24;10.40;;;5.60;;
58294;SDS011;45705;55.592;37.460;2023-04-08T13:59:50;11.95;;;5.47;;
58294;SDS011;45705;55.592;37.460;2023-04-08T14:02:16;8.68;;;5.05;;
58294;SDS011;45705;55.592;37.460;2023-04-08T14:04:42;7.88;;;5.07;;
58294;SDS011;45705;55.592;37.460;2023-04-08T14:07:11;14.55;;;5.15;;
58294;SDS011;45705;55.592;37.460;2023-04-08T14:09:37;9.45;;;4.95;;
58294;SDS011;45705;55.592;37.460;2023-04-08T14:12:03;10.88;;;4.85;;
58294;SDS011;45705;55.592;37.460;2023-04-08T14:14:29;8.02;;;5.20;;
58294;SDS011;45705;55.592;37.460;2023-04-08T14:16:54;9.60;;;4.82;;
58294;SDS011;45705;55.592;37.460;2023-04-08T14:19:21;9.38;;;5.00;;
58294;SDS011;45705;55.592;37.460;2023-04-08T14:21:47;19.08;;;4.88;;
58294;SDS011;45705;55.592;37.460;2023-04-08T14:24:12;12.63;;;5.00;;
58294;SDS011;45705;55.592;37.460;2023-04-08T14:26:38;13.15;;;5.47;;
58294;SDS011;45705;55.592;37.460;2023-04-08T14:29:04;9.68;;;5.00;;
58294;SDS011;45705;55.592;37.460;2023-04-08T14:31:31;13.50;;;6.47;;
58294;SDS011;45705;55.592;37.460;2023-04-08T14:33:58;13.23;;;6.97;;
58294;SDS011;45705;55.592;37.460;2023-04-08T14:36:24;10.77;;;5.25;;
58294;SDS011;45705;55.592;37.460;2023-04-08T14:38:50;13.30;;;5.65;;
58294;SDS011;45705;55.592;37.460;2023-04-08T14:41:16;8.02;;;5.25;;
58294;SDS011;45705;55.592;37.460;2023-04-08T14:43:42;12.50;;;5.72;;
58294;SDS011;45705;55.592;37.460;2023-04-08T14:46:08;9.05;;;4.93;;
58294;SDS011;45705;55.592;37.460;2023-04-08T14:48:33;10.40;;;6.28;;
58294;SDS011;45705;55.592;37.460;2023-04-08T14:50:59;12.80;;;5.88;;
58294;SDS011;45705;55.592;37.460;2023-04-08T14:53:25;12.32;;;5.68;;